Time;durP1;ratioP1;P1;durP2;ratioP2;P2;SDS_P1;SDS_P2;PMS_P1;PMS_P2;Temp;Humidity;BMP_temperature;BMP_pressure;BME280_temperature;BME280_humidity;BME280_pressure;Samples;Min_cycle;Max_cycle;Signal;HPM_P1;HPM_P2
2022/04/11 00:01:03;;;;;;;3.67;2.05;;;13.00;81.00;;;;;;5062909;28;20056;-74
2022/04/11 00:03:31;;;;;;;4.15;1.90;;;13.00;81.40;;;;;;5065097;28;20549;-74
2022/04/11 00:05:58;;;;;;;3.35;2.08;;;13.00;81.70;;;;;;5076182;28;20127;-75
2022/04/11 00:08:26;;;;;;;5.07;1.85;;;13.00;82.00;;;;;;5066131;28;20048;-74
2022/04/11 00:10:54;;;;;;;3.78;1.90;;;12.90;82.10;;;;;;5075913;28;20139;-74
2022/04/11 00:13:22;;;;;;;3.13;1.75;;;13.00;82.60;;;;;;5058764;28;20053;-75
2022/04/11 00:15:49;;;;;;;2.80;1.80;;;12.90;82.90;;;;;;5062465;28;20068;-75
2022/04/11 00:18:17;;;;;;;4.53;2.35;;;12.80;83.00;;;;;;5050494;28;20056;-76
2022/04/11 00:20:47;;;;;;;7.05;2.47;;;12.90;83.00;;;;;;5056608;28;20036;-76
2022/04/11 00:23:14;;;;;;;5.63;1.95;;;12.90;82.80;;;;;;5057228;28;20048;-76
2022/04/11 00:25:42;;;;;;;4.00;1.90;;;12.80;82.40;;;;;;5062436;28;20056;-75
2022/04/11 00:28:10;;;;;;;3.65;2.00;;;12.80;81.90;;;;;;5052405;28;20045;-75
2022/04/11 00:30:37;;;;;;;6.43;1.88;;;12.80;81.40;;;;;;5058283;28;20040;-75
2022/04/11 00:33:05;;;;;;;2.90;1.83;;;12.80;81.50;;;;;;5027279;28;20049;-75
2022/04/11 00:35:32;;;;;;;2.45;1.35;;;12.80;81.30;;;;;;5041833;28;20051;-77
2022/04/11 00:38:00;;;;;;;2.63;1.55;;;12.80;81.20;;;;;;5050419;28;20152;-75
2022/04/11 00:40:28;;;;;;;2.60;1.38;;;12.80;81.20;;;;;;5074871;28;20101;-77
2022/04/11 00:42:55;;;;;;;1.75;1.50;;;12.70;81.40;;;;;;5036616;28;20123;-75
2022/04/11 00:45:23;;;;;;;3.40;1.95;;;12.70;81.60;;;;;;5078604;28;20464;-76
2022/04/11 00:47:50;;;;;;;2.70;1.92;;;12.70;81.70;;;;;;5059074;28;20075;-75
2022/04/11 00:50:18;;;;;;;3.35;1.40;;;12.70;81.80;;;;;;5051542;28;20094;-76
2022/04/11 00:52:48;;;;;;;4.68;1.35;;;12.80;82.00;;;;;;5079281;28;20079;-76
2022/04/11 00:55:23;;;;;;;2.60;1.50;;;12.80;82.30;;;;;;5061132;28;20052;-76
2022/04/11 00:57:51;;;;;;;2.33;1.70;;;12.80;82.40;;;;;;5080467;28;20047;-76
2022/04/11 01:00:19;;;;;;;4.25;1.65;;;12.70;82.40;;;;;;5040330;28;20069;-76
2022/04/11 01:02:46;;;;;;;2.85;1.25;;;12.70;82.70;;;;;;5058265;28;20273;-77
2022/04/11 01:05:14;;;;;;;3.45;1.73;;;12.70;82.70;;;;;;5048924;28;20047;-77
2022/04/11 01:07:43;;;;;;;3.20;2.03;;;12.70;82.70;;;;;;5049471;28;20037;-78
2022/04/11 01:10:11;;;;;;;7.15;1.60;;;12.70;82.50;;;;;;5049287;28;20040;-77
2022/04/11 01:12:41;;;;;;;3.25;1.65;;;12.70;82.50;;;;;;5063782;28;20045;-77
2022/04/11 01:15:12;;;;;;;2.40;1.50;;;12.60;82.20;;;;;;5033429;28;20055;-77
2022/04/11 01:17:41;;;;;;;3.17;1.98;;;12.60;82.60;;;;;;5049530;28;20128;-77
2022/04/11 01:20:12;;;;;;;2.75;1.92;;;12.60;82.80;;;;;;5050122;28;20056;-77
2022/04/11 01:22:42;;;;;;;9.85;2.45;;;12.60;83.00;;;;;;5049333;28;20593;-77
2022/04/11 01:25:11;;;;;;;3.03;1.85;;;12.60;83.20;;;;;;5016046;28;20052;-77
2022/04/11 01:27:40;;;;;;;3.83;1.52;;;12.50;83.20;;;;;;5046816;28;20593;-78
2022/04/11 01:30:12;;;;;;;5.10;1.60;;;12.50;83.40;;;;;;5085774;28;20105;-77
2022/04/11 01:32:43;;;;;;;5.63;1.83;;;12.50;83.50;;;;;;5068457;28;20045;-77
2022/04/11 01:35:26;;;;;;;2.72;1.42;;;12.50;83.70;;;;;;5069327;28;20040;-77
2022/04/11 01:38:02;;;;;;;4.53;1.58;;;12.50;83.80;;;;;;5068776;28;20110;-77
2022/04/11 01:40:30;;;;;;;3.92;1.80;;;12.50;83.90;;;;;;5085532;28;20064;-77
2022/04/11 01:42:57;;;;;;;4.28;2.00;;;12.50;83.90;;;;;;5068697;28;20626;-76
2022/04/11 01:45:25;;;;;;;3.83;1.75;;;12.50;84.00;;;;;;5068897;28;20445;-78
2022/04/11 01:47:53;;;;;;;4.40;1.55;;;12.50;84.10;;;;;;5051391;28;20055;-77
2022/04/11 01:50:21;;;;;;;3.30;2.00;;;12.50;84.10;;;;;;5068673;28;20125;-79
2022/04/11 01:52:49;;;;;;;2.80;1.70;;;12.50;84.20;;;;;;5068633;28;20569;-77
2022/04/11 01:55:17;;;;;;;4.10;1.63;;;12.50;84.40;;;;;;5068482;28;20441;-77
2022/04/11 01:57:47;;;;;;;2.38;1.27;;;12.50;84.60;;;;;;5068716;28;20075;-77
2022/04/11 02:00:15;;;;;;;5.88;1.60;;;12.50;84.80;;;;;;5055485;28;20083;-77
2022/04/11 02:02:45;;;;;;;2.42;1.83;;;12.50;85.10;;;;;;5072351;28;20054;-77
2022/04/11 02:05:12;;;;;;;3.15;1.48;;;12.50;85.60;;;;;;5088377;28;20070;-77
2022/04/11 02:07:40;;;;;;;4.55;1.52;;;12.50;85.70;;;;;;5071682;28;20048;-77
2022/04/11 02:10:09;;;;;;;4.80;1.65;;;12.40;85.60;;;;;;5071744;28;20048;-77
2022/04/11 02:12:38;;;;;;;2.33;1.70;;;12.40;85.60;;;;;;5068952;28;20067;-77
2022/04/11 02:15:07;;;;;;;2.10;1.65;;;12.40;85.40;;;;;;5051975;28;20040;-77
2022/04/11 02:17:35;;;;;;;2.60;1.33;;;12.40;85.40;;;;;;5051918;28;20040;-77
2022/04/11 02:20:04;;;;;;;3.25;2.00;;;12.40;85.50;;;;;;5051334;28;20048;-77
2022/04/11 02:22:45;;;;;;;3.30;1.75;;;12.40;85.30;;;;;;5068272;28;20098;-78
2022/04/11 02:25:13;;;;;;;3.92;1.55;;;12.40;85.30;;;;;;5052219;28;20074;-77
2022/04/11 02:27:41;;;;;;;2.67;1.48;;;12.40;85.00;;;;;;5034967;28;20090;-77
2022/04/11 02:30:10;;;;;;;3.55;2.15;;;12.40;85.00;;;;;;5051768;28;20090;-77
2022/04/11 02:32:38;;;;;;;3.85;1.73;;;12.40;84.90;;;;;;5037928;28;20049;-77
2022/04/11 02:35:07;;;;;;;2.55;1.50;;;12.30;84.60;;;;;;5055499;28;20049;-77
2022/04/11 02:37:34;;;;;;;2.92;1.27;;;12.30;84.00;;;;;;5071836;28;20102;-77
2022/04/11 02:40:05;;;;;;;6.50;2.00;;;12.30;83.30;;;;;;5055493;28;20047;-77
2022/04/11 02:42:39;;;;;;;3.38;1.70;;;12.20;82.50;;;;;;5055353;28;20044;-77
2022/04/11 02:45:13;;;;;;;4.75;1.50;;;12.20;81.70;;;;;;5038893;28;20048;-77
2022/04/11 02:47:42;;;;;;;4.57;1.48;;;12.20;81.20;;;;;;5055250;28;20045;-78
2022/04/11 02:50:12;;;;;;;3.13;1.50;;;12.20;81.00;;;;;;5055449;28;20167;-76
2022/04/11 02:52:58;;;;;;;3.58;1.58;;;12.20;81.10;;;;;;5040833;28;20138;-77
2022/04/11 02:55:26;;;;;;;2.28;1.40;;;12.20;81.10;;;;;;5054395;28;20040;-77
2022/04/11 02:57:54;;;;;;;1.42;1.25;;;12.20;81.30;;;;;;5038566;28;20394;-77
2022/04/11 03:00:23;;;;;;;3.13;1.58;;;12.20;81.20;;;;;;5035836;28;20053;-78
2022/04/11 03:02:57;;;;;;;2.17;1.35;;;12.20;81.30;;;;;;5038627;28;20123;-77
2022/04/11 03:05:29;;;;;;;3.53;1.60;;;12.20;81.20;;;;;;5071483;28;20513;-77
2022/04/11 03:07:58;;;;;;;2.88;2.15;;;12.10;81.00;;;;;;5054622;28;20605;-77
2022/04/11 03:10:26;;;;;;;3.20;1.92;;;12.20;81.20;;;;;;5054645;28;20168;-77
2022/04/11 03:12:59;;;;;;;2.30;1.40;;;12.20;81.50;;;;;;5038742;28;20411;-77
2022/04/11 03:15:31;;;;;;;2.47;1.88;;;12.20;81.70;;;;;;5070806;28;20051;-77
2022/04/11 03:17:59;;;;;;;3.72;1.38;;;12.20;81.90;;;;;;5071000;28;20383;-77
2022/04/11 03:20:27;;;;;;;3.78;1.25;;;12.20;82.10;;;;;;5070838;28;20037;-77
2022/04/11 03:22:55;;;;;;;1.95;1.25;;;12.20;82.30;;;;;;5054871;28;20047;-77
2022/04/11 03:25:22;;;;;;;4.38;1.60;;;12.20;82.60;;;;;;5071090;28;20469;-77
2022/04/11 03:27:50;;;;;;;2.25;1.40;;;12.20;82.60;;;;;;5053859;28;20102;-77
2022/04/11 03:30:19;;;;;;;7.45;2.00;;;12.20;82.80;;;;;;5038202;28;20075;-77
2022/04/11 03:32:47;;;;;;;3.67;1.45;;;12.20;82.70;;;;;;5053903;28;20079;-78
2022/04/11 03:35:16;;;;;;;2.90;1.35;;;12.10;82.70;;;;;;5070582;28;20040;-77
2022/04/11 03:37:45;;;;;;;2.58;1.10;;;12.10;82.90;;;;;;5054503;28;20048;-78
2022/04/11 03:40:22;;;;;;;1.55;1.10;;;12.10;82.90;;;;;;5054093;28;20036;-77
2022/04/11 03:42:51;;;;;;;3.65;0.98;;;12.20;82.90;;;;;;5037366;28;20095;-77
2022/04/11 03:45:19;;;;;;;5.22;1.45;;;12.10;83.00;;;;;;5037347;28;20502;-78
2022/04/11 03:47:48;;;;;;;3.25;1.60;;;12.10;83.10;;;;;;5053876;28;20499;-77
2022/04/11 03:50:19;;;;;;;4.32;1.83;;;12.10;83.10;;;;;;5053694;28;20052;-77
2022/04/11 03:52:47;;;;;;;2.38;1.38;;;12.20;83.20;;;;;;5054656;28;20145;-77
2022/04/11 03:55:14;;;;;;;2.20;1.40;;;12.20;83.10;;;;;;5037162;28;20452;-78
2022/04/11 03:57:45;;;;;;;3.33;1.45;;;12.20;83.40;;;;;;5054276;28;20151;-77
2022/04/11 04:00:14;;;;;;;8.45;2.20;;;12.20;83.60;;;;;;5051693;28;20516;-77
2022/04/11 04:03:07;;;;;;;2.83;1.65;;;12.10;83.60;;;;;;5039591;28;20052;-77
2022/04/11 04:05:44;;;;;;;5.10;1.80;;;12.20;83.80;;;;;;5053991;28;20123;-77
2022/04/11 04:08:17;;;;;;;4.63;1.50;;;12.10;83.70;;;;;;5054209;28;20047;-77
2022/04/11 04:10:55;;;;;;;2.67;1.95;;;12.10;83.80;;;;;;5038352;28;20048;-77
2022/04/11 04:13:24;;;;;;;3.42;1.77;;;12.10;83.90;;;;;;5069810;28;20057;-77
2022/04/11 04:15:52;;;;;;;6.63;2.22;;;12.10;83.80;;;;;;5036883;28;20491;-78
2022/04/11 04:18:20;;;;;;;4.55;2.00;;;12.10;83.90;;;;;;5049628;28;20100;-78
2022/04/11 04:20:48;;;;;;;7.25;2.63;;;12.10;84.00;;;;;;5066359;28;20049;-77
2022/04/11 04:23:17;;;;;;;5.82;2.60;;;12.10;84.50;;;;;;5079599;28;20053;-77
2022/04/11 04:25:45;;;;;;;3.55;1.83;;;12.10;85.00;;;;;;5064383;28;20047;-77
2022/04/11 04:28:17;;;;;;;3.70;2.72;;;12.10;85.20;;;;;;5058996;28;20056;-77
2022/04/11 04:30:46;;;;;;;3.55;2.00;;;12.10;85.30;;;;;;5064864;28;20101;-77
2022/04/11 04:33:15;;;;;;;4.28;2.53;;;12.10;85.50;;;;;;5059814;28;20131;-76
2022/04/11 04:35:45;;;;;;;4.85;2.28;;;12.10;85.50;;;;;;5052752;28;20052;-77
2022/04/11 04:38:13;;;;;;;3.97;2.17;;;12.10;85.60;;;;;;5053188;28;20052;-76
2022/04/11 04:40:50;;;;;;;5.47;2.60;;;12.10;85.80;;;;;;5040134;28;20045;-76
2022/04/11 04:43:21;;;;;;;3.10;2.30;;;12.20;85.80;;;;;;5055467;28;20054;-77
2022/04/11 04:45:51;;;;;;;4.40;2.40;;;12.20;85.70;;;;;;5038403;28;20135;-77
2022/04/11 04:48:33;;;;;;;5.57;1.90;;;12.30;85.90;;;;;;5039847;28;20135;-76
2022/04/11 04:51:01;;;;;;;3.83;2.13;;;12.40;85.60;;;;;;5055024;28;20498;-76
2022/04/11 04:53:32;;;;;;;4.50;2.40;;;12.50;85.40;;;;;;5071080;28;20530;-76
2022/04/11 04:56:02;;;;;;;4.15;2.55;;;12.60;85.30;;;;;;5038435;28;20055;-76
2022/04/11 04:58:33;;;;;;;2.95;1.95;;;12.70;84.50;;;;;;5035167;28;20052;-76
2022/04/11 05:01:01;;;;;;;2.63;1.63;;;12.70;83.80;;;;;;5018119;28;20064;-78
2022/04/11 05:03:30;;;;;;;3.60;1.48;;;12.80;83.90;;;;;;5035459;28;20049;-76
2022/04/11 05:05:58;;;;;;;4.05;1.95;;;12.90;83.70;;;;;;5018562;28;20149;-76
2022/04/11 05:08:26;;;;;;;7.80;2.10;;;13.10;84.10;;;;;;5034248;28;20045;-76
2022/04/11 05:10:53;;;;;;;2.83;1.50;;;13.20;84.00;;;;;;5034121;28;20562;-77
2022/04/11 05:13:22;;;;;;;3.70;1.50;;;13.30;83.60;;;;;;5052444;28;20041;-75
2022/04/11 05:15:51;;;;;;;4.10;2.30;;;13.40;83.50;;;;;;5034284;28;20045;-77
2022/04/11 05:18:24;;;;;;;12.05;1.80;;;13.60;83.30;;;;;;5034373;28;20049;-78
2022/04/11 05:20:53;;;;;;;6.75;2.05;;;13.80;82.30;;;;;;5018066;28;20059;-77
2022/04/11 05:23:22;;;;;;;6.32;2.10;;;14.00;81.90;;;;;;5018152;28;20066;-76
2022/04/11 05:25:50;;;;;;;6.10;2.00;;;14.20;81.20;;;;;;5034937;28;20076;-76
2022/04/11 05:28:19;;;;;;;3.50;2.50;;;14.40;81.10;;;;;;5050645;28;20499;-77
2022/04/11 05:30:57;;;;;;;6.25;1.90;;;14.60;80.70;;;;;;5019902;28;20140;-76
2022/04/11 05:33:24;;;;;;;7.03;2.53;;;14.80;80.40;;;;;;5051167;28;20140;-76
2022/04/11 05:35:53;;;;;;;5.57;2.30;;;14.90;79.60;;;;;;5050760;28;20052;-75
2022/04/11 05:38:21;;;;;;;3.03;1.75;;;15.10;79.60;;;;;;5033431;28;20506;-75
2022/04/11 05:40:51;;;;;;;4.72;2.03;;;15.20;78.90;;;;;;5034281;28;20041;-75
2022/04/11 05:43:31;;;;;;;4.35;2.42;;;15.30;78.10;;;;;;5034778;28;20102;-75
2022/04/11 05:46:01;;;;;;;2.58;1.50;;;15.40;77.50;;;;;;5045423;28;20071;-76
2022/04/11 05:48:32;;;;;;;5.57;1.98;;;15.60;77.30;;;;;;5069550;28;20082;-76
2022/04/11 05:51:01;;;;;;;4.00;1.80;;;15.60;76.60;;;;;;5052998;28;20399;-75
2022/04/11 05:53:28;;;;;;;9.02;1.83;;;15.80;76.10;;;;;;5069121;28;20050;-75
2022/04/11 05:55:56;;;;;;;3.22;2.10;;;15.90;75.90;;;;;;5053719;28;20098;-75
2022/04/11 05:58:24;;;;;;;2.28;1.60;;;16.10;75.80;;;;;;5069894;28;20044;-75
2022/04/11 06:00:56;;;;;;;2.65;1.55;;;16.20;75.50;;;;;;5036924;28;20056;-75
2022/04/11 06:03:24;;;;;;;4.30;2.03;;;16.30;75.40;;;;;;5069009;28;20052;-75
2022/04/11 06:05:52;;;;;;;5.95;1.70;;;16.40;75.10;;;;;;5037786;28;20067;-75
2022/04/11 06:08:20;;;;;;;3.13;1.90;;;16.50;75.00;;;;;;5039675;28;20052;-75
2022/04/11 06:10:48;;;;;;;2.83;1.33;;;16.70;75.20;;;;;;5039738;28;20041;-75
2022/04/11 06:13:19;;;;;;;3.67;1.33;;;16.70;74.50;;;;;;5040843;28;20183;-76
2022/04/11 06:15:49;;;;;;;3.13;1.60;;;16.80;74.70;;;;;;5056940;28;20490;-75
2022/04/11 06:18:17;;;;;;;5.65;1.38;;;16.90;74.50;;;;;;5056377;28;20048;-75
2022/04/11 06:20:46;;;;;;;5.88;1.30;;;16.90;74.20;;;;;;5056962;28;20060;-75
2022/04/11 06:23:15;;;;;;;6.35;2.38;;;17.00;74.20;;;;;;5057151;28;20056;-75
2022/04/11 06:25:42;;;;;;;3.20;1.80;;;17.00;74.00;;;;;;5056825;28;20044;-75
2022/04/11 06:28:10;;;;;;;3.72;1.38;;;17.20;74.20;;;;;;5040124;28;20083;-76
2022/04/11 06:30:39;;;;;;;3.97;1.58;;;17.20;73.80;;;;;;5073301;28;20040;-75
2022/04/11 06:33:06;;;;;;;5.78;2.05;;;17.30;73.50;;;;;;5056698;28;20055;-75
2022/04/11 06:35:34;;;;;;;3.83;1.50;;;17.30;73.60;;;;;;5056041;28;20045;-77
2022/04/11 06:38:02;;;;;;;2.55;1.33;;;17.40;73.00;;;;;;5055915;28;20456;-75
2022/04/11 06:40:30;;;;;;;5.85;1.98;;;17.50;72.70;;;;;;5072208;28;20102;-75
2022/04/11 06:42:57;;;;;;;2.47;1.25;;;17.60;72.50;;;;;;5039867;28;20098;-76
2022/04/11 06:45:49;;;;;;;2.00;1.10;;;17.70;71.90;;;;;;5054260;28;20048;-77
2022/04/11 06:48:20;;;;;;;4.07;1.55;;;17.80;71.90;;;;;;5057002;28;20076;-75
2022/04/11 06:50:50;;;;;;;1.25;0.93;;;17.80;72.10;;;;;;5074169;28;20044;-74
2022/04/11 06:53:19;;;;;;;2.97;1.70;;;17.90;72.00;;;;;;5072897;28;20045;-75
2022/04/11 06:55:47;;;;;;;4.57;1.15;;;18.00;71.90;;;;;;5056460;28;20041;-76
2022/04/11 06:58:18;;;;;;;3.17;1.83;;;18.10;72.30;;;;;;5073988;28;20055;-75
2022/04/11 07:00:46;;;;;;;4.43;1.25;;;18.20;72.20;;;;;;5072567;28;20554;-74
2022/04/11 07:03:14;;;;;;;2.42;1.83;;;18.30;71.30;;;;;;5039633;28;20059;-75
2022/04/11 07:05:42;;;;;;;2.20;1.10;;;18.30;71.00;;;;;;5072689;28;20051;-75
2022/04/11 07:08:10;;;;;;;2.80;1.30;;;18.30;70.40;;;;;;5056503;28;20060;-75
2022/04/11 07:10:40;;;;;;;4.53;1.58;;;18.40;70.70;;;;;;5072658;28;20075;-74
2022/04/11 07:13:08;;;;;;;3.75;2.17;;;18.40;70.00;;;;;;5072594;28;20044;-74
2022/04/11 07:15:35;;;;;;;3.40;1.20;;;18.40;69.70;;;;;;5039558;28;20083;-74
2022/04/11 07:18:03;;;;;;;2.65;1.42;;;18.20;68.40;;;;;;5055944;28;20060;-75
2022/04/11 07:20:31;;;;;;;2.28;1.05;;;18.20;68.90;;;;;;5038599;28;20091;-75
2022/04/11 07:22:59;;;;;;;5.63;1.42;;;18.20;68.80;;;;;;5055499;28;20200;-75
2022/04/11 07:25:28;;;;;;;3.05;1.38;;;18.10;67.70;;;;;;5072177;28;20056;-75
2022/04/11 07:27:56;;;;;;;2.15;1.45;;;18.30;67.70;;;;;;5056394;28;20045;-75
2022/04/11 07:30:24;;;;;;;1.88;1.00;;;18.30;67.90;;;;;;5055847;28;20047;-74
2022/04/11 07:32:51;;;;;;;3.35;1.38;;;18.20;67.40;;;;;;5073868;28;20055;-74
2022/04/11 07:35:19;;;;;;;1.75;1.17;;;18.20;66.30;;;;;;5039366;28;20048;-74
2022/04/11 07:37:47;;;;;;;3.22;1.30;;;18.30;66.50;;;;;;5039229;28;20110;-74
2022/04/11 07:40:14;;;;;;;1.85;0.80;;;18.30;66.80;;;;;;5070609;28;20072;-75
2022/04/11 07:42:42;;;;;;;2.05;1.00;;;18.40;66.50;;;;;;5035483;28;20132;-74
2022/04/11 07:45:10;;;;;;;1.85;1.00;;;18.40;66.20;;;;;;5035637;28;20049;-75
2022/04/11 07:47:38;;;;;;;2.30;1.30;;;18.50;66.50;;;;;;5052398;28;20422;-74
2022/04/11 07:50:06;;;;;;;3.47;1.30;;;18.60;66.80;;;;;;5035070;28;20040;-77
2022/04/11 07:52:37;;;;;;;3.05;1.20;;;18.60;66.30;;;;;;5019020;28;20425;-75
2022/04/11 07:55:07;;;;;;;2.03;0.90;;;18.60;65.00;;;;;;5052125;28;20048;-74
2022/04/11 07:57:34;;;;;;;3.13;0.98;;;18.60;65.70;;;;;;5053132;28;20099;-75
2022/04/11 08:00:20;;;;;;;2.35;1.20;;;18.50;66.30;;;;;;5020974;28;20065;-76
2022/04/11 08:02:56;;;;;;;3.70;1.10;;;18.50;66.00;;;;;;5018736;28;20056;-75
2022/04/11 08:05:25;;;;;;;2.97;1.38;;;18.40;66.20;;;;;;5034789;28;20136;-75
2022/04/11 08:07:52;;;;;;;2.97;1.33;;;18.40;66.70;;;;;;5052049;28;20045;-74
2022/04/11 08:10:23;;;;;;;3.13;1.30;;;18.50;67.10;;;;;;5035486;28;20037;-75
2022/04/11 08:12:59;;;;;;;3.90;2.40;;;18.60;67.10;;;;;;5051364;28;20041;-75
2022/04/11 08:15:29;;;;;;;3.22;1.30;;;18.80;66.60;;;;;;5018714;28;20049;-74
2022/04/11 08:17:57;;;;;;;1.77;1.10;;;18.70;67.40;;;;;;5019471;28;20068;-74
2022/04/11 08:20:26;;;;;;;3.78;1.42;;;18.80;67.40;;;;;;5018438;28;20557;-74
2022/04/11 08:22:54;;;;;;;1.52;1.02;;;18.80;68.20;;;;;;5035014;28;20388;-74
2022/04/11 08:25:22;;;;;;;1.83;1.00;;;18.80;68.30;;;;;;5018287;28;20482;-75
2022/04/11 08:27:51;;;;;;;3.20;1.02;;;18.70;68.70;;;;;;5035083;28;20037;-75
2022/04/11 08:30:19;;;;;;;2.65;1.00;;;18.70;67.30;;;;;;5051248;28;20047;-74
2022/04/11 08:32:49;;;;;;;2.38;1.13;;;18.60;66.80;;;;;;5050279;28;20073;-74
2022/04/11 08:35:21;;;;;;;2.40;1.40;;;18.70;67.90;;;;;;5049793;28;20048;-74
2022/04/11 08:37:49;;;;;;;2.15;1.45;;;18.80;68.00;;;;;;5049504;28;20063;-73
2022/04/11 08:40:19;;;;;;;3.10;1.20;;;18.70;67.40;;;;;;5050753;28;20048;-74
2022/04/11 08:42:48;;;;;;;4.35;1.55;;;18.70;68.30;;;;;;5049612;28;20079;-75
2022/04/11 08:45:19;;;;;;;1.73;1.05;;;18.90;69.10;;;;;;5049719;28;20056;-76
2022/04/11 08:47:50;;;;;;;1.88;1.08;;;19.00;67.50;;;;;;5032861;28;20041;-75
2022/04/11 08:50:18;;;;;;;3.10;0.98;;;19.00;68.40;;;;;;5049455;28;20095;-75
2022/04/11 08:52:49;;;;;;;1.98;1.10;;;19.00;67.60;;;;;;5016483;28;20068;-75
2022/04/11 08:55:18;;;;;;;1.92;1.48;;;19.10;68.00;;;;;;5049498;28;20048;-76
2022/04/11 08:57:46;;;;;;;2.47;1.48;;;18.90;68.00;;;;;;5050711;28;20052;-72
2022/04/11 09:00:20;;;;;;;2.90;1.42;;;19.10;66.90;;;;;;5054220;28;20083;-72
2022/04/11 09:02:48;;;;;;;3.78;1.23;;;19.20;67.60;;;;;;5019579;28;20095;-72
2022/04/11 09:05:23;;;;;;;2.25;1.40;;;19.10;68.20;;;;;;5035926;28;20079;-73
2022/04/11 09:07:58;;;;;;;1.90;1.07;;;19.20;67.30;;;;;;5070146;28;20045;-73
2022/04/11 09:10:37;;;;;;;1.30;0.80;;;19.10;66.20;;;;;;5035941;28;20044;-72
2022/04/11 09:13:07;;;;;;;3.50;2.25;;;19.10;64.80;;;;;;5052662;28;20049;-73
2022/04/11 09:15:43;;;;;;;2.05;1.10;;;19.20;65.30;;;;;;5035313;28;20483;-73
2022/04/11 09:18:11;;;;;;;2.95;1.30;;;19.30;66.60;;;;;;5019857;28;20087;-74
2022/04/11 09:20:42;;;;;;;5.95;1.65;;;19.30;67.20;;;;;;5051651;28;20098;-73
2022/04/11 09:23:21;;;;;;;6.53;1.80;;;19.30;66.70;;;;;;5070005;28;20106;-73
2022/04/11 09:25:49;;;;;;;1.38;0.80;;;19.30;67.00;;;;;;5070643;28;20052;-73
2022/04/11 09:28:17;;;;;;;5.07;1.42;;;18.90;66.00;;;;;;5052374;28;20048;-74
2022/04/11 09:30:46;;;;;;;3.38;1.20;;;18.70;66.60;;;;;;5052402;28;20040;-74
2022/04/11 09:33:15;;;;;;;3.67;1.40;;;18.80;67.80;;;;;;5035777;28;20105;-74
2022/04/11 09:35:47;;;;;;;3.90;1.85;;;18.80;66.20;;;;;;5052507;28;20034;-73
2022/04/11 09:38:15;;;;;;;4.05;1.35;;;18.70;66.60;;;;;;5052287;28;20147;-73
2022/04/11 09:40:49;;;;;;;2.72;1.15;;;18.70;66.40;;;;;;5054110;28;20056;-73
2022/04/11 09:43:34;;;;;;;1.75;0.93;;;18.80;66.80;;;;;;5074188;28;20439;-74
2022/04/11 09:46:03;;;;;;;5.73;1.57;;;19.00;64.60;;;;;;5039795;28;20147;-74
2022/04/11 09:48:35;;;;;;;5.53;1.25;;;19.10;64.20;;;;;;5039607;28;20048;-73
2022/04/11 09:51:10;;;;;;;6.70;2.05;;;19.00;65.50;;;;;;5056751;28;20044;-73
2022/04/11 09:53:38;;;;;;;1.08;0.77;;;19.20;66.40;;;;;;5074168;28;20044;-73
2022/04/11 09:56:08;;;;;;;2.00;1.40;;;19.20;66.90;;;;;;5023462;28;20052;-74
2022/04/11 09:58:41;;;;;;;3.15;1.05;;;18.80;66.70;;;;;;5055975;28;20486;-73
2022/04/11 10:01:09;;;;;;;2.13;1.25;;;18.70;67.00;;;;;;5056100;28;20383;-73
2022/04/11 10:03:38;;;;;;;2.45;1.45;;;18.80;67.00;;;;;;5055941;28;20836;-74
2022/04/11 10:06:07;;;;;;;2.08;1.00;;;18.80;65.00;;;;;;5039039;28;20139;-74
2022/04/11 10:08:35;;;;;;;3.40;1.30;;;18.70;64.20;;;;;;5039227;28;20445;-74
2022/04/11 10:11:04;;;;;;;4.22;1.10;;;18.80;63.30;;;;;;5055573;28;20385;-74
2022/04/11 10:13:36;;;;;;;3.42;1.35;;;18.90;63.70;;;;;;5055551;28;20402;-74
2022/04/11 10:16:06;;;;;;;2.53;1.27;;;18.90;62.90;;;;;;5073474;28;20118;-75
2022/04/11 10:18:35;;;;;;;3.72;1.35;;;19.00;67.80;;;;;;5073305;28;20051;-74
2022/04/11 10:21:05;;;;;;;4.95;1.55;;;19.00;64.30;;;;;;5022818;28;20506;-76
2022/04/11 10:24:03;;;;;;;3.38;1.05;;;19.00;64.70;;;;;;5042344;28;20486;-76
2022/04/11 10:26:52;;;;;;;2.70;1.20;;;18.80;66.90;;;;;;5059424;28;20049;-75
2022/04/11 10:29:38;;;;;;;2.10;1.15;;;18.90;65.10;;;;;;5065577;28;20404;-75
2022/04/11 10:32:09;;;;;;;2.75;0.95;;;18.80;62.40;;;;;;5072090;28;20037;-75
2022/04/11 10:34:47;;;;;;;2.03;1.17;;;18.90;62.90;;;;;;5052936;28;20112;-74
2022/04/11 10:37:16;;;;;;;4.90;1.00;;;18.70;62.60;;;;;;5044502;28;20497;-75
2022/04/11 10:39:46;;;;;;;2.80;1.77;;;18.60;63.00;;;;;;5082679;28;20075;-75
2022/04/11 10:42:17;;;;;;;2.85;1.15;;;18.60;63.90;;;;;;5064102;28;20075;-74
2022/04/11 10:44:46;;;;;;;1.90;1.00;;;18.40;63.50;;;;;;5041799;28;20150;-77
2022/04/11 10:47:17;;;;;;;2.67;1.30;;;18.30;64.60;;;;;;5058505;28;20132;-75
2022/04/11 10:49:50;;;;;;;2.55;1.10;;;18.40;64.20;;;;;;5075119;28;20036;-75
2022/04/11 10:52:34;;;;;;;7.03;1.20;;;18.40;62.90;;;;;;5040528;28;20076;-75
2022/04/11 10:55:18;;;;;;;2.35;1.00;;;18.40;61.20;;;;;;5041713;28;20056;-75
2022/04/11 10:57:51;;;;;;;2.38;1.30;;;18.40;62.60;;;;;;5057975;28;20498;-75
2022/04/11 11:00:27;;;;;;;3.38;1.60;;;18.20;61.60;;;;;;5074579;28;20506;-75
2022/04/11 11:03:01;;;;;;;2.05;1.20;;;18.30;62.70;;;;;;5058474;28;20052;-75
2022/04/11 11:05:38;;;;;;;5.82;1.77;;;18.30;64.10;;;;;;5075035;28;20048;-75
2022/04/11 11:08:11;;;;;;;4.88;1.25;;;18.40;64.60;;;;;;5041167;28;20093;-75
2022/04/11 11:10:54;;;;;;;10.07;2.28;;;18.40;62.00;;;;;;5074459;28;20069;-76
2022/04/11 11:13:26;;;;;;;1.77;0.90;;;18.30;61.80;;;;;;5041523;28;20055;-75
2022/04/11 11:15:55;;;;;;;1.60;1.13;;;18.30;63.50;;;;;;5041570;28;20101;-75
2022/04/11 11:18:23;;;;;;;2.25;1.10;;;18.30;63.00;;;;;;5074157;28;20051;-75
2022/04/11 11:20:57;;;;;;;3.28;1.10;;;18.40;63.30;;;;;;5024210;28;20058;-76
2022/04/11 11:23:33;;;;;;;2.70;1.00;;;18.40;63.10;;;;;;5054312;28;20056;-75
2022/04/11 11:26:09;;;;;;;2.60;1.00;;;18.10;63.70;;;;;;5054476;28;20044;-75
2022/04/11 11:28:40;;;;;;;;;;;18.20;65.30;;;;;;5038420;28;20478;-74
2022/04/11 11:31:10;;;;;;;2.00;1.08;;;18.20;66.80;;;;;;5039536;28;19924;-75
2022/04/11 11:33:49;;;;;;;29.42;4.22;;;18.10;65.60;;;;;;5039242;28;20628;-75
2022/04/11 11:36:26;;;;;;;6.65;2.05;;;18.00;66.40;;;;;;5021593;28;20390;-74
2022/04/11 11:38:54;;;;;;;4.35;1.42;;;18.00;66.20;;;;;;5054021;28;20516;-74
2022/04/11 11:41:25;;;;;;;3.92;1.40;;;17.80;65.60;;;;;;5037275;28;20052;-74
2022/04/11 11:43:55;;;;;;;1.55;1.10;;;17.90;65.90;;;;;;5054224;28;20493;-74
2022/04/11 11:46:23;;;;;;;3.92;1.23;;;18.00;66.00;;;;;;5054055;28;20044;-74
2022/04/11 11:48:55;;;;;;;2.97;1.25;;;17.90;65.60;;;;;;5053974;28;20049;-73
2022/04/11 11:51:23;;;;;;;2.67;1.20;;;18.00;66.00;;;;;;5037327;28;20048;-73
2022/04/11 11:53:51;;;;;;;1.92;1.08;;;18.00;67.50;;;;;;5037458;28;20055;-73
2022/04/11 11:56:18;;;;;;;4.28;1.00;;;18.10;67.70;;;;;;5071514;28;20059;-74
2022/04/11 11:58:48;;;;;;;2.38;1.10;;;18.10;66.70;;;;;;5036466;28;20874;-73
2022/04/11 12:01:16;;;;;;;2.00;1.00;;;18.20;66.10;;;;;;5017504;28;20072;-73
2022/04/11 12:06:31;;;;;;;4.20;1.15;;;18.20;65.00;;;;;;5051060;28;20087;-73
2022/04/11 12:09:02;;;;;;;3.70;1.40;;;18.20;66.50;;;;;;5033655;28;20410;-73
2022/04/11 12:11:32;;;;;;;3.63;1.98;;;18.20;66.60;;;;;;5050521;28;20443;-73
2022/04/11 12:14:05;;;;;;;5.38;0.80;;;18.20;65.80;;;;;;5051426;28;20077;-73
2022/04/11 12:16:35;;;;;;;2.05;1.00;;;18.00;63.00;;;;;;5050067;28;20042;-73
2022/04/11 12:19:05;;;;;;;1.98;1.10;;;17.90;63.00;;;;;;5049353;28;20053;-74
2022/04/11 12:21:33;;;;;;;2.95;1.30;;;17.80;62.50;;;;;;5050801;28;20045;-73
2022/04/11 12:24:03;;;;;;;1.27;1.00;;;17.80;64.00;;;;;;5033498;28;20122;-73
2022/04/11 12:26:36;;;;;;;3.75;1.02;;;17.80;63.00;;;;;;5017293;28;20147;-73
2022/04/11 12:29:15;;;;;;;3.88;1.05;;;17.70;62.60;;;;;;5050041;28;20057;-73
2022/04/11 12:31:56;;;;;;;1.13;1.00;;;17.70;64.10;;;;;;5033442;28;20040;-74
2022/04/11 12:34:39;;;;;;;12.18;1.05;;;17.60;64.90;;;;;;5032595;28;20107;-74
2022/04/11 12:37:08;;;;;;;1.55;0.98;;;17.50;64.30;;;;;;5032679;28;20048;-74
2022/04/11 12:40:09;;;;;;;1.52;0.90;;;17.50;64.80;;;;;;5015887;28;20055;-75
2022/04/11 12:42:37;;;;;;;3.65;1.10;;;17.40;63.20;;;;;;5000348;28;20064;-75
2022/04/11 12:45:09;;;;;;;1.35;0.80;;;17.40;63.10;;;;;;5049342;28;20147;-75
2022/04/11 12:48:06;;;;;;;1.40;0.90;;;17.50;63.00;;;;;;5032590;28;20045;-73
2022/04/11 12:50:36;;;;;;;2.05;1.00;;;17.50;64.30;;;;;;5044568;28;20077;-74
2022/04/11 12:53:04;;;;;;;3.10;0.93;;;17.20;64.30;;;;;;5032249;28;20102;-74
2022/04/11 12:55:35;;;;;;;4.15;1.20;;;17.20;63.80;;;;;;5048871;28;20036;-73
2022/04/11 12:58:04;;;;;;;2.47;0.90;;;17.00;64.70;;;;;;5015752;28;20041;-73
2022/04/11 13:00:37;;;;;;;2.55;1.20;;;17.10;65.90;;;;;;5056248;28;20156;-73
2022/04/11 13:03:06;;;;;;;3.78;1.00;;;17.00;66.00;;;;;;5035496;28;20498;-74
2022/04/11 13:05:33;;;;;;;2.63;1.20;;;17.00;65.30;;;;;;5052050;28;20141;-74
2022/04/11 13:08:06;;;;;;;2.05;0.90;;;16.90;64.40;;;;;;5052139;28;20036;-74